Estación Meteorológica Peña el Pijo (Robertgarden) [ 11/16/18 14:20:02 CET ]

Fecha Hora Presion(HPa) Temp (°C) Humedad % Rocio (°C) Viento ( m/s) Direccion Lluvia 1Hora(mm) Lluvia 24H(mm) LLuvia Total(mm)
2018-Sep-19 01:01:55 1013.500 14.4 89 12.6       2.59 354.31
2018-Sep-19 02:01:45 1013.800 14.5 89 12.7       2.59 354.31
2018-Sep-19 03:01:40 1013.200 14.5 90 12.9       2.59 354.31
2018-Sep-19 04:01:43 1012.700 14.4 90 12.8       2.59 354.31
2018-Sep-19 05:01:41 1012.300 14.4 90 12.8       2.59 354.31
2018-Sep-19 06:03:28 1012.400 13.8 91 12.4       2.59 354.31
2018-Sep-19 07:01:41 1012.800 13.0 90 11.4       2.59 354.31
2018-Sep-19 08:01:50 1013.300 12.1 91 10.7       2.59 354.31
2018-Sep-19 09:01:47 1013.600 13.5 92 12.2       2.59 354.31
2018-Sep-19 10:01:46 1014.000 17.8 92 16.5       2.59 354.31
2018-Sep-19 11:01:49 1014.300 24.2 81 20.8       2.59 354.31
2018-Sep-19 12:01:55 1014.600 27.3 50 16.0       2.59 354.31
2018-Sep-19 13:01:46 1014.500 28.6 43 14.8       2.59 354.31
2018-Sep-19 14:01:51 1014.200 28.1 43 14.3       2.59 354.31
2018-Sep-19 15:02:11 1013.800 29.2 40 14.3       2.59 354.31
2018-Sep-19 16:01:54 1013.500 30.1 36 13.3       2.59 354.31
2018-Sep-19 17:01:49 1013.400 25.8 45 12.9       1.55 354.31
2018-Sep-19 18:02:00 1013.900 23.4 54 13.5         354.31
2018-Sep-19 19:01:57 1013.700 24.8 53 14.6         354.31
2018-Sep-19 20:01:38 1014.000 20.5 61 12.7         354.31
2018-Sep-19 21:01:39 1014.400 17.6 71 12.3         354.31
2018-Sep-19 22:01:35 1015.000 15.9 77 11.9         354.31
2018-Sep-19 23:01:44 1015.600 14.9 80 11.5         354.31

Temperatura Máxima:30°    Temperatura Mínima:12°
Presión Máxima:1015.600 Hpa    Presión Mínima:1012.300 Hpa


Volver